Time;durP1;ratioP1;P1;durP2;ratioP2;P2;SDS_P1;SDS_P2;PMS_P1;PMS_P2;Temp;Humidity;BMP_temperature;BMP_pressure;BME280_temperature;BME280_humidity;BME280_pressure;Samples;Min_cycle;Max_cycle;Signal;HPM_P1;HPM_P2
2022/03/20 00:00:36;;;;;;;23.05;4.82;;;;;;;;;;4934192;28;20398;-76
2022/03/20 00:03:12;;;;;;;26.05;4.63;;;;;;;;;;4939333;28;20033;-76
2022/03/20 00:05:40;;;;;;;23.70;4.78;;;;;;;;;;4936748;29;20047;-76
2022/03/20 00:08:11;;;;;;;23.92;4.22;;;;;;;;;;4946079;28;20053;-76
2022/03/20 00:10:37;;;;;;;23.50;4.32;;;;;;;;;;4951244;28;20046;-76
2022/03/20 00:13:06;;;;;;;23.05;4.30;;;;;;;;;;4941385;28;20035;-76
2022/03/20 00:15:32;;;;;;;24.38;4.32;;;;;;;;;;4935542;29;20031;-76
2022/03/20 00:17:57;;;;;;;22.17;5.25;;;;;;;;;;4934909;29;20519;-76
2022/03/20 00:20:23;;;;;;;19.75;4.28;;;;;;;;;;4931770;28;20035;-76
2022/03/20 00:22:48;;;;;;;25.88;4.53;;;;;;;;;;4935721;28;20067;-76
2022/03/20 00:25:14;;;;;;;17.95;3.97;;;;;;;;;;4958312;28;20065;-76
2022/03/20 00:27:40;;;;;;;26.23;3.92;;;;;;;;;;4955409;28;20050;-76
2022/03/20 00:30:06;;;;;;;16.70;3.38;;;;;;;;;;4951251;28;20522;-76
2022/03/20 00:32:31;;;;;;;18.50;4.15;;;;;;;;;;4939009;28;20537;-76
2022/03/20 00:34:59;;;;;;;28.45;5.07;;;;;;;;;;4942406;29;20038;-76
2022/03/20 00:37:26;;;;;;;18.63;3.85;;;;;;;;;;4934813;28;20411;-76
2022/03/20 00:39:52;;;;;;;28.27;5.57;;;;;;;;;;4961769;28;20684;-76
2022/03/20 00:42:18;;;;;;;33.00;4.43;;;;;;;;;;4939175;28;20158;-76
2022/03/20 00:44:43;;;;;;;28.20;4.28;;;;;;;;;;4938750;28;20126;-76
2022/03/20 00:47:09;;;;;;;27.92;5.45;;;;;;;;;;4939661;28;20108;-76
2022/03/20 00:49:35;;;;;;;24.35;5.85;;;;;;;;;;4940013;29;20079;-76
2022/03/20 00:52:01;;;;;;;27.67;4.35;;;;;;;;;;4931367;29;20151;-76
2022/03/20 00:54:27;;;;;;;26.90;4.03;;;;;;;;;;4951589;28;20676;-76
2022/03/20 00:56:52;;;;;;;24.85;4.03;;;;;;;;;;4935190;28;20035;-76
2022/03/20 00:59:18;;;;;;;30.40;4.32;;;;;;;;;;4936264;28;20213;-76
2022/03/20 01:01:45;;;;;;;28.00;4.63;;;;;;;;;;4928106;29;20039;-76
2022/03/20 01:04:10;;;;;;;18.80;4.25;;;;;;;;;;4946090;28;20462;-76
2022/03/20 01:06:36;;;;;;;31.85;4.85;;;;;;;;;;4944350;28;20049;-76
2022/03/20 01:09:01;;;;;;;28.23;5.55;;;;;;;;;;4939643;28;20751;-76
2022/03/20 01:11:27;;;;;;;25.90;4.35;;;;;;;;;;4949353;28;20069;-76
2022/03/20 01:13:56;;;;;;;16.85;4.05;;;;;;;;;;4956414;28;20122;-76
2022/03/20 01:16:22;;;;;;;34.92;5.15;;;;;;;;;;4951885;28;20081;-76
2022/03/20 01:18:47;;;;;;;21.45;3.90;;;;;;;;;;4952216;28;20043;-76
2022/03/20 01:21:13;;;;;;;21.75;4.00;;;;;;;;;;4950231;28;20031;-76
2022/03/20 01:23:39;;;;;;;22.42;4.57;;;;;;;;;;4956484;28;20425;-76
2022/03/20 01:26:05;;;;;;;26.55;4.65;;;;;;;;;;4951640;28;20039;-76
2022/03/20 01:28:30;;;;;;;22.23;4.47;;;;;;;;;;4949625;28;20073;-76
2022/03/20 01:30:56;;;;;;;33.85;4.32;;;;;;;;;;4952483;28;20031;-76
2022/03/20 01:33:22;;;;;;;17.27;4.10;;;;;;;;;;4931313;29;20038;-75
2022/03/20 01:35:48;;;;;;;26.08;4.93;;;;;;;;;;4955686;28;20027;-75
2022/03/20 01:41:03;;;;;;;23.23;4.13;;;;;;;;;;3082104;26;20059;-83
2022/03/20 01:43:28;;;;;;;27.63;4.63;;;;;;;;;;4962418;28;20058;-85
2022/03/20 01:45:54;;;;;;;24.40;4.80;;;;;;;;;;4935809;28;20144;-83
2022/03/20 01:48:20;;;;;;;21.58;5.10;;;;;;;;;;4952444;28;20097;-84
2022/03/20 01:50:48;;;;;;;37.90;4.60;;;;;;;;;;4974266;28;20086;-83
2022/03/20 01:53:18;;;;;;;19.98;4.10;;;;;;;;;;4967871;28;20027;-83
2022/03/20 01:55:50;;;;;;;35.85;5.68;;;;;;;;;;4955410;28;20055;-83
2022/03/20 01:58:20;;;;;;;29.38;3.75;;;;;;;;;;4962875;28;20058;-84
2022/03/20 02:00:45;;;;;;;26.50;5.43;;;;;;;;;;4964103;28;20027;-84
2022/03/20 02:03:11;;;;;;;30.00;4.93;;;;;;;;;;4947167;28;20488;-87
2022/03/20 02:05:41;;;;;;;22.55;4.88;;;;;;;;;;4960102;28;20032;-84
2022/03/20 02:08:06;;;;;;;21.33;4.35;;;;;;;;;;4963503;28;20028;-86
2022/03/20 02:10:36;;;;;;;26.58;5.07;;;;;;;;;;4968506;28;20654;-86
2022/03/20 02:13:03;;;;;;;35.58;6.25;;;;;;;;;;4967458;28;20031;-86
2022/03/20 02:15:29;;;;;;;32.72;5.30;;;;;;;;;;4949721;28;20038;-84
2022/03/20 02:17:56;;;;;;;35.67;5.22;;;;;;;;;;4972240;28;20027;-87
2022/03/20 02:20:23;;;;;;;26.73;5.15;;;;;;;;;;4949208;28;20204;-83
2022/03/20 02:22:49;;;;;;;19.98;3.22;;;;;;;;;;4975436;28;20550;-88
2022/03/20 02:25:17;;;;;;;25.50;5.75;;;;;;;;;;4959713;28;20108;-83
2022/03/20 02:27:44;;;;;;;22.63;5.05;;;;;;;;;;4972932;28;20110;-89
2022/03/20 02:30:15;;;;;;;28.45;5.07;;;;;;;;;;4963529;28;20640;-84
2022/03/20 02:32:45;;;;;;;32.22;6.03;;;;;;;;;;4956051;28;20034;-85
2022/03/20 02:35:14;;;;;;;28.02;4.50;;;;;;;;;;4967803;28;20427;-84
2022/03/20 02:37:46;;;;;;;34.40;4.25;;;;;;;;;;4967047;28;20027;-86
2022/03/20 02:40:13;;;;;;;22.23;4.18;;;;;;;;;;4949603;28;20066;-83
2022/03/20 02:42:40;;;;;;;20.45;3.78;;;;;;;;;;4972640;28;20047;-85
2022/03/20 02:45:09;;;;;;;26.58;4.72;;;;;;;;;;4950333;28;20027;-85
2022/03/20 02:47:38;;;;;;;32.03;5.53;;;;;;;;;;4966487;28;20126;-84
2022/03/20 02:50:25;;;;;;;23.05;4.88;;;;;;;;;;4969106;28;20030;-85
2022/03/20 02:52:53;;;;;;;28.80;5.88;;;;;;;;;;4974832;28;20057;-85
2022/03/20 02:55:23;;;;;;;25.58;5.07;;;;;;;;;;4973080;28;20514;-85
2022/03/20 02:57:49;;;;;;;27.98;5.60;;;;;;;;;;4946012;28;20109;-84
2022/03/20 03:00:21;;;;;;;31.23;4.55;;;;;;;;;;4945707;28;20039;-84
2022/03/20 03:02:47;;;;;;;40.77;6.53;;;;;;;;;;4952575;28;20618;-85
2022/03/20 03:05:15;;;;;;;20.58;4.50;;;;;;;;;;4960738;28;20339;-83
2022/03/20 03:13:19;;;;;;;21.48;4.70;;;;;;;;;;4957588;28;20041;-87
2022/03/20 03:15:45;;;;;;;26.60;4.72;;;;;;;;;;4936767;28;20506;-87
2022/03/20 03:18:11;;;;;;;26.33;4.85;;;;;;;;;;4947747;28;20155;-87
2022/03/20 03:20:37;;;;;;;21.48;3.83;;;;;;;;;;4968859;28;20026;-87
2022/03/20 03:23:07;;;;;;;28.90;5.28;;;;;;;;;;4963024;28;20027;-88
2022/03/20 03:25:36;;;;;;;29.33;5.35;;;;;;;;;;4966609;28;20116;-86
2022/03/20 03:28:02;;;;;;;25.85;4.65;;;;;;;;;;4969716;28;20514;-87
2022/03/20 03:30:28;;;;;;;30.70;5.22;;;;;;;;;;4936083;28;20043;-88
2022/03/20 03:32:55;;;;;;;22.80;4.82;;;;;;;;;;4966230;28;20491;-89
2022/03/20 03:38:07;;;;;;;24.77;4.70;;;;;;;;;;4959774;28;20619;-91
2022/03/20 03:40:33;;;;;;;29.95;5.43;;;;;;;;;;4956439;28;20047;-87
2022/03/20 03:42:59;;;;;;;20.40;3.90;;;;;;;;;;4975592;28;20038;-87
2022/03/20 03:45:25;;;;;;;34.13;5.55;;;;;;;;;;4949523;28;20067;-86
2022/03/20 03:47:52;;;;;;;27.88;4.57;;;;;;;;;;4954660;28;20062;-89
2022/03/20 03:50:18;;;;;;;21.65;4.88;;;;;;;;;;4952098;28;20198;-88
2022/03/20 03:52:44;;;;;;;24.30;4.28;;;;;;;;;;4955267;28;20523;-88
2022/03/20 03:55:10;;;;;;;31.33;5.22;;;;;;;;;;4961460;28;20035;-88
2022/03/20 03:57:36;;;;;;;21.95;4.30;;;;;;;;;;4961695;28;20395;-87
2022/03/20 04:00:05;;;;;;;30.15;4.32;;;;;;;;;;4925964;28;20038;-89
2022/03/20 04:02:37;;;;;;;31.27;5.18;;;;;;;;;;4975985;28;20037;-89
2022/03/20 04:05:05;;;;;;;21.93;4.97;;;;;;;;;;4977795;28;20031;-86
2022/03/20 04:07:31;;;;;;;26.42;4.35;;;;;;;;;;4959792;28;20117;-87
2022/03/20 04:09:57;;;;;;;23.55;4.68;;;;;;;;;;4977785;28;20063;-87
2022/03/20 04:12:29;;;;;;;19.83;4.57;;;;;;;;;;4955884;28;20615;-87
2022/03/20 04:14:57;;;;;;;25.80;4.25;;;;;;;;;;4959935;28;20038;-86
2022/03/20 04:17:25;;;;;;;18.20;4.15;;;;;;;;;;4961321;28;20046;-87
2022/03/20 04:19:51;;;;;;;23.60;5.20;;;;;;;;;;4952098;28;20030;-88
2022/03/20 04:22:18;;;;;;;27.60;4.60;;;;;;;;;;4953851;28;20122;-87
2022/03/20 04:24:46;;;;;;;26.50;5.43;;;;;;;;;;4941346;28;20044;-87
2022/03/20 04:27:13;;;;;;;34.90;4.72;;;;;;;;;;4931001;29;20123;-88
2022/03/20 04:29:42;;;;;;;37.92;5.43;;;;;;;;;;4946640;28;20046;-89
2022/03/20 04:32:08;;;;;;;27.08;4.28;;;;;;;;;;4974351;28;20078;-89
2022/03/20 04:34:35;;;;;;;30.25;5.45;;;;;;;;;;4967825;28;23089;-88
2022/03/20 04:37:05;;;;;;;26.88;4.43;;;;;;;;;;4965246;28;20078;-88
2022/03/20 04:39:35;;;;;;;19.60;4.45;;;;;;;;;;4957036;28;20023;-87
2022/03/20 04:42:02;;;;;;;29.15;4.97;;;;;;;;;;4972883;28;20118;-86
2022/03/20 04:44:27;;;;;;;23.88;4.15;;;;;;;;;;4971713;28;20031;-88
2022/03/20 04:46:54;;;;;;;27.70;3.92;;;;;;;;;;4936130;28;20601;-89
2022/03/20 05:00:18;;;;;;;22.10;4.70;;;;;;;;;;4954387;28;20077;-88
2022/03/20 05:02:45;;;;;;;27.83;4.55;;;;;;;;;;4965383;28;20034;-87
2022/03/20 05:05:11;;;;;;;34.15;4.00;;;;;;;;;;4959246;28;20137;-88
2022/03/20 05:07:37;;;;;;;19.98;4.45;;;;;;;;;;4966917;28;20028;-88
2022/03/20 05:15:32;;;;;;;24.33;3.88;;;;;;;;;;4947722;28;20595;-88
2022/03/20 05:17:58;;;;;;;29.83;3.83;;;;;;;;;;4961348;28;20117;-88
2022/03/20 05:20:26;;;;;;;30.65;4.65;;;;;;;;;;4962665;28;20071;-88
2022/03/20 05:22:52;;;;;;;40.70;5.28;;;;;;;;;;4947762;28;20083;-88
2022/03/20 05:25:18;;;;;;;24.05;5.20;;;;;;;;;;4967392;28;20428;-89
2022/03/20 05:27:44;;;;;;;22.77;4.78;;;;;;;;;;4915492;29;20055;-88
2022/03/20 05:30:10;;;;;;;26.83;4.40;;;;;;;;;;4964866;28;20471;-88
2022/03/20 05:32:38;;;;;;;27.17;5.18;;;;;;;;;;4949932;28;20123;-88
2022/03/20 05:35:05;;;;;;;19.25;4.55;;;;;;;;;;4967404;28;20567;-89
2022/03/20 05:37:30;;;;;;;16.60;3.78;;;;;;;;;;4968635;28;20032;-88
2022/03/20 05:39:56;;;;;;;17.25;3.95;;;;;;;;;;4966220;28;20127;-88
2022/03/20 05:42:21;;;;;;;27.73;4.03;;;;;;;;;;4949444;28;20035;-87
2022/03/20 05:44:47;;;;;;;19.42;4.32;;;;;;;;;;4946235;28;20151;-87
2022/03/20 05:47:12;;;;;;;21.45;3.80;;;;;;;;;;4968237;28;20032;-90
2022/03/20 05:49:38;;;;;;;17.45;3.90;;;;;;;;;;4970383;28;20032;-88
2022/03/20 05:52:06;;;;;;;18.17;4.07;;;;;;;;;;4970097;28;20079;-89
2022/03/20 05:54:32;;;;;;;28.92;3.97;;;;;;;;;;4937635;28;20031;-87
2022/03/20 05:59:41;;;;;;;25.95;4.20;;;;;;;;;;4950699;28;20105;-88
2022/03/20 06:02:11;;;;;;;27.48;4.10;;;;;;;;;;4947634;28;20451;-88
2022/03/20 06:04:38;;;;;;;23.08;4.43;;;;;;;;;;4969778;28;20047;-88
2022/03/20 06:07:07;;;;;;;23.70;4.38;;;;;;;;;;4957036;28;20077;-88
2022/03/20 06:09:41;;;;;;;22.80;3.75;;;;;;;;;;4936524;28;20069;-87
2022/03/20 06:12:07;;;;;;;19.27;3.95;;;;;;;;;;4952217;28;20031;-88
2022/03/20 06:14:35;;;;;;;22.23;3.65;;;;;;;;;;4973006;28;20036;-86
2022/03/20 06:17:05;;;;;;;16.20;3.80;;;;;;;;;;4952834;28;20054;-88
2022/03/20 06:19:34;;;;;;;24.25;4.55;;;;;;;;;;4968255;28;20113;-89
2022/03/20 06:21:59;;;;;;;19.65;4.15;;;;;;;;;;4937758;28;20371;-89
2022/03/20 06:24:28;;;;;;;22.77;4.20;;;;;;;;;;4961169;28;20042;-88
2022/03/20 06:26:53;;;;;;;20.00;3.85;;;;;;;;;;4949630;28;20039;-88
2022/03/20 06:29:19;;;;;;;27.92;4.97;;;;;;;;;;4971979;28;20759;-89
2022/03/20 06:31:48;;;;;;;27.98;4.50;;;;;;;;;;4947584;28;20821;-88
2022/03/20 06:34:17;;;;;;;27.60;4.72;;;;;;;;;;4966184;28;20031;-87
2022/03/20 06:36:43;;;;;;;26.33;4.30;;;;;;;;;;4954529;28;20023;-87
2022/03/20 06:39:09;;;;;;;18.08;3.30;;;;;;;;;;4955100;28;20282;-86
2022/03/20 06:41:36;;;;;;;32.97;5.85;;;;;;;;;;4936258;28;20063;-88
2022/03/20 06:44:02;;;;;;;20.02;5.70;;;;;;;;;;4952154;28;20044;-89
2022/03/20 06:46:28;;;;;;;23.92;3.60;;;;;;;;;;4954525;28;20692;-88
2022/03/20 06:48:53;;;;;;;25.20;4.05;;;;;;;;;;4941502;28;20050;-88
2022/03/20 06:51:21;;;;;;;34.80;4.15;;;;;;;;;;4959035;28;20071;-89
2022/03/20 06:53:47;;;;;;;25.27;4.32;;;;;;;;;;4934595;28;20038;-87
2022/03/20 06:56:13;;;;;;;36.78;4.97;;;;;;;;;;4938029;28;20026;-89
2022/03/20 06:58:39;;;;;;;17.80;3.60;;;;;;;;;;4949867;28;20035;-88
2022/03/20 07:01:09;;;;;;;17.17;3.55;;;;;;;;;;4929611;28;20085;-88
2022/03/20 07:03:34;;;;;;;15.07;4.13;;;;;;;;;;4950549;28;20518;-88
2022/03/20 07:06:00;;;;;;;24.10;4.07;;;;;;;;;;4964975;28;20065;-88
2022/03/20 07:08:25;;;;;;;21.33;4.10;;;;;;;;;;4963025;28;20119;-88
2022/03/20 07:10:51;;;;;;;28.38;4.68;;;;;;;;;;4952650;28;20066;-87
2022/03/20 07:16:03;;;;;;;19.10;4.05;;;;;;;;;;4955395;28;20090;-88
2022/03/20 07:18:29;;;;;;;31.65;5.28;;;;;;;;;;4970915;28;20511;-88
2022/03/20 07:20:55;;;;;;;24.17;4.38;;;;;;;;;;4947270;28;20098;-85
2022/03/20 07:23:23;;;;;;;18.95;3.45;;;;;;;;;;4944461;28;20032;-87
2022/03/20 07:31:16;;;;;;;33.13;5.32;;;;;;;;;;4944297;28;20107;-86
2022/03/20 07:33:42;;;;;;;25.23;4.10;;;;;;;;;;4964406;28;20102;-88
2022/03/20 07:36:08;;;;;;;27.05;3.38;;;;;;;;;;4919866;28;20019;-88
2022/03/20 07:38:37;;;;;;;29.40;4.90;;;;;;;;;;4961368;28;20033;-88
2022/03/20 07:41:03;;;;;;;31.95;4.88;;;;;;;;;;4966969;28;20047;-88
2022/03/20 07:43:29;;;;;;;23.45;4.50;;;;;;;;;;4961574;28;20038;-87
2022/03/20 07:45:56;;;;;;;24.98;4.25;;;;;;;;;;4958674;28;20129;-87
2022/03/20 07:48:23;;;;;;;24.15;4.35;;;;;;;;;;4949474;28;20031;-89
2022/03/20 07:50:57;;;;;;;34.53;4.07;;;;;;;;;;4963876;28;20058;-87
2022/03/20 07:53:23;;;;;;;22.50;4.20;;;;;;;;;;4949809;28;20062;-87
2022/03/20 07:55:49;;;;;;;27.60;4.18;;;;;;;;;;4973937;28;20034;-88
2022/03/20 07:58:19;;;;;;;23.80;4.22;;;;;;;;;;4954428;28;20039;-88
2022/03/20 08:00:46;;;;;;;32.47;4.18;;;;;;;;;;4960435;28;20031;-89
2022/03/20 08:03:12;;;;;;;31.05;4.45;;;;;;;;;;4964369;28;20053;-88
2022/03/20 08:05:40;;;;;;;21.85;3.22;;;;;;;;;;4946172;28;20086;-87
2022/03/20 08:08:09;;;;;;;34.33;5.13;;;;;;;;;;4926349;28;20035;-87
2022/03/20 08:10:35;;;;;;;20.63;4.32;;;;;;;;;;4949905;28;20551;-86
2022/03/20 08:13:06;;;;;;;33.50;3.45;;;;;;;;;;4975133;28;20031;-86
2022/03/20 08:15:34;;;;;;;26.60;3.47;;;;;;;;;;4958365;28;20034;-88
2022/03/20 08:18:00;;;;;;;25.50;4.75;;;;;;;;;;4970055;28;20039;-85
2022/03/20 08:20:27;;;;;;;24.80;3.92;;;;;;;;;;4974190;28;20118;-88
2022/03/20 08:22:56;;;;;;;34.15;4.57;;;;;;;;;;4954797;28;20030;-86
2022/03/20 08:25:28;;;;;;;21.92;3.35;;;;;;;;;;4960143;28;20034;-86
2022/03/20 08:28:00;;;;;;;26.92;4.63;;;;;;;;;;4956075;28;20222;-87
2022/03/20 08:30:26;;;;;;;27.70;5.15;;;;;;;;;;4949647;28;20043;-90
2022/03/20 08:32:53;;;;;;;29.90;3.75;;;;;;;;;;4970089;28;20085;-87
2022/03/20 08:35:19;;;;;;;19.02;3.85;;;;;;;;;;4967516;28;20035;-86
2022/03/20 08:37:45;;;;;;;23.70;3.63;;;;;;;;;;4974167;22;20042;-58
2022/03/20 08:40:20;;;;;;;27.30;3.80;;;;;;;;;;4967740;28;20313;-60
2022/03/20 08:42:52;;;;;;;28.25;3.88;;;;;;;;;;5005269;28;20247;-60
2022/03/20 08:45:20;;;;;;;26.13;4.88;;;;;;;;;;5005732;28;20030;-57
2022/03/20 08:47:46;;;;;;;31.40;5.47;;;;;;;;;;5002727;28;20472;-57
2022/03/20 08:50:14;;;;;;;25.13;3.88;;;;;;;;;;5005877;28;20113;-57
2022/03/20 08:52:42;;;;;;;24.60;4.38;;;;;;;;;;4996650;28;20057;-57
2022/03/20 08:55:11;;;;;;;24.17;3.80;;;;;;;;;;5026164;28;20496;-56
2022/03/20 08:57:42;;;;;;;30.45;3.75;;;;;;;;;;5001499;28;20025;-56
2022/03/20 09:00:10;;;;;;;22.08;3.72;;;;;;;;;;5001135;28;20109;-57
2022/03/20 09:02:36;;;;;;;28.08;4.60;;;;;;;;;;5009202;28;20034;-57
2022/03/20 09:05:03;;;;;;;27.50;5.03;;;;;;;;;;5002161;28;20506;-57
2022/03/20 09:07:29;;;;;;;29.70;4.25;;;;;;;;;;5007077;28;20033;-56
2022/03/20 09:09:55;;;;;;;37.22;5.13;;;;;;;;;;5002175;28;20044;-56
2022/03/20 09:12:20;;;;;;;33.55;4.95;;;;;;;;;;4994731;28;20062;-57
2022/03/20 09:14:46;;;;;;;24.45;4.45;;;;;;;;;;5007610;28;20037;-56
2022/03/20 09:19:57;;;;;;;29.02;5.22;;;;;;;;;;5008328;28;20041;-57
2022/03/20 09:22:25;;;;;;;18.83;4.97;;;;;;;;;;5003518;28;20166;-57
2022/03/20 09:24:51;;;;;;;20.55;4.07;;;;;;;;;;4996208;28;20115;-57
2022/03/20 09:27:17;;;;;;;23.35;5.07;;;;;;;;;;5008506;28;20048;-56
2022/03/20 09:29:42;;;;;;;20.88;4.93;;;;;;;;;;4998095;28;20030;-56
2022/03/20 09:32:09;;;;;;;26.85;4.60;;;;;;;;;;4994667;28;20026;-57
2022/03/20 09:34:35;;;;;;;16.90;4.32;;;;;;;;;;4981997;28;20579;-57
2022/03/20 09:37:01;;;;;;;18.27;4.50;;;;;;;;;;4992129;28;20121;-57
2022/03/20 09:39:26;;;;;;;23.80;4.65;;;;;;;;;;4987123;28;20074;-57
2022/03/20 09:41:55;;;;;;;27.90;4.70;;;;;;;;;;4986333;28;20562;-57
2022/03/20 09:44:25;;;;;;;29.48;4.97;;;;;;;;;;4988766;28;20046;-57
2022/03/20 09:46:51;;;;;;;14.55;4.25;;;;;;;;;;4986256;28;20505;-57
2022/03/20 09:49:20;;;;;;;20.90;4.57;;;;;;;;;;4984469;28;20034;-57
2022/03/20 09:51:45;;;;;;;19.38;5.25;;;;;;;;;;4985871;28;20112;-57
2022/03/20 09:54:13;;;;;;;16.35;3.22;;;;;;;;;;4985995;28;20599;-57
2022/03/20 09:56:42;;;;;;;19.50;3.70;;;;;;;;;;4992816;28;20125;-56
2022/03/20 09:59:09;;;;;;;27.55;4.78;;;;;;;;;;4990500;28;20101;-57
2022/03/20 10:01:36;;;;;;;19.48;4.57;;;;;;;;;;4988367;28;20089;-57
2022/03/20 10:04:15;;;;;;;28.00;5.40;;;;;;;;;;4989088;28;20074;-57
2022/03/20 10:06:41;;;;;;;16.42;4.22;;;;;;;;;;4989787;28;20109;-57
2022/03/20 10:09:10;;;;;;;22.85;4.40;;;;;;;;;;4986987;28;20030;-57
2022/03/20 10:11:49;;;;;;;24.45;4.53;;;;;;;;;;4991482;28;20484;-57
2022/03/20 10:14:17;;;;;;;30.23;4.35;;;;;;;;;;4979055;28;20030;-57
2022/03/20 10:17:16;;;;;;;26.17;4.55;;;;;;;;;;4987149;28;20026;-56
2022/03/20 10:19:42;;;;;;;26.40;6.72;;;;;;;;;;4990810;28;20049;-57
2022/03/20 10:22:09;;;;;;;15.63;4.32;;;;;;;;;;4991100;28;20392;-56
2022/03/20 10:24:37;;;;;;;24.77;5.10;;;;;;;;;;4989655;28;20531;-57
2022/03/20 10:27:05;;;;;;;27.00;4.60;;;;;;;;;;4983172;28;20027;-57
2022/03/20 10:29:33;;;;;;;21.25;5.05;;;;;;;;;;4977662;28;20509;-56
2022/03/20 10:32:02;;;;;;;35.85;5.78;;;;;;;;;;4982573;28;20031;-57
2022/03/20 10:34:27;;;;;;;26.65;4.63;;;;;;;;;;4993769;28;20081;-56
2022/03/20 10:36:53;;;;;;;33.00;5.25;;;;;;;;;;4987699;28;20419;-57
2022/03/20 10:39:21;;;;;;;24.50;5.28;;;;;;;;;;4982080;28;20467;-56
2022/03/20 10:41:52;;;;;;;25.85;5.82;;;;;;;;;;4984634;28;20245;-57
2022/03/20 10:44:27;;;;;;;33.05;5.05;;;;;;;;;;4984684;28;20544;-56
2022/03/20 10:47:02;;;;;;;28.15;5.25;;;;;;;;;;4981530;28;20054;-56
2022/03/20 10:49:28;;;;;;;22.10;4.32;;;;;;;;;;4993926;28;20032;-56
2022/03/20 10:52:03;;;;;;;21.80;4.22;;;;;;;;;;4989112;28;20078;-56
2022/03/20 10:54:46;;;;;;;19.02;4.78;;;;;;;;;;4984232;28;20048;-57
2022/03/20 10:57:15;;;;;;;22.30;5.22;;;;;;;;;;4983342;28;20038;-56
2022/03/20 10:59:42;;;;;;;29.45;6.25;;;;;;;;;;4978723;28;20269;-57
2022/03/20 11:02:22;;;;;;;23.17;5.38;;;;;;;;;;4981730;28;20449;-56
2022/03/20 11:04:48;;;;;;;25.95;6.10;;;;;;;;;;4983287;28;20114;-57
2022/03/20 11:07:16;;;;;;;19.75;5.55;;;;;;;;;;4989856;28;20038;-56
2022/03/20 11:09:46;;;;;;;38.20;6.15;;;;;;;;;;4989587;28;20037;-57
2022/03/20 11:12:16;;;;;;;19.90;4.68;;;;;;;;;;4988047;28;20546;-56
2022/03/20 11:14:43;;;;;;;19.45;5.78;;;;;;;;;;4987773;28;20106;-56
2022/03/20 11:17:12;;;;;;;18.60;5.43;;;;;;;;;;4989706;28;20054;-57
2022/03/20 11:19:43;;;;;;;14.55;4.65;;;;;;;;;;4979217;28;20058;-56
2022/03/20 11:22:10;;;;;;;28.20;5.28;;;;;;;;;;4985941;28;20490;-57
2022/03/20 11:24:37;;;;;;;18.08;4.78;;;;;;;;;;4992682;28;20034;-57
2022/03/20 11:27:04;;;;;;;33.08;5.10;;;;;;;;;;4993231;28;20408;-56
2022/03/20 11:29:43;;;;;;;28.17;4.93;;;;;;;;;;4983422;28;20515;-56
2022/03/20 11:32:09;;;;;;;20.50;4.80;;;;;;;;;;4990518;28;20439;-56
2022/03/20 11:34:35;;;;;;;20.95;5.50;;;;;;;;;;4989033;28;20396;-57
2022/03/20 11:37:08;;;;;;;32.42;5.80;;;;;;;;;;4991296;28;20026;-56
2022/03/20 11:39:35;;;;;;;19.67;5.40;;;;;;;;;;4984211;28;20108;-56
2022/03/20 11:42:27;;;;;;;22.35;4.68;;;;;;;;;;4988254;28;20062;-56
2022/03/20 11:45:04;;;;;;;22.20;5.32;;;;;;;;;;4987123;28;20046;-56
2022/03/20 11:47:37;;;;;;;20.20;5.50;;;;;;;;;;4991219;28;20591;-56
2022/03/20 11:50:07;;;;;;;15.88;5.03;;;;;;;;;;4990482;28;20352;-57
2022/03/20 11:52:55;;;;;;;21.52;5.22;;;;;;;;;;4984530;28;20034;-57
2022/03/20 11:55:33;;;;;;;25.35;5.57;;;;;;;;;;4979278;28;20068;-57
2022/03/20 11:58:24;;;;;;;20.25;4.75;;;;;;;;;;4984805;28;20037;-56
2022/03/20 12:01:07;;;;;;;15.32;4.80;;;;;;;;;;4978308;28;20045;-56
2022/03/20 12:04:11;;;;;;;20.88;5.07;;;;;;;;;;4987927;28;20037;-56
2022/03/20 12:07:01;;;;;;;31.25;5.45;;;;;;;;;;4962805;28;20531;-58
2022/03/20 12:10:00;;;;;;;15.15;4.22;;;;;;;;;;4987063;28;20571;-57
2022/03/20 12:12:54;;;;;;;27.30;5.90;;;;;;;;;;4987282;28;20022;-57
2022/03/20 12:15:23;;;;;;;26.73;6.15;;;;;;;;;;4987977;28;20030;-56
2022/03/20 12:18:04;;;;;;;25.17;5.70;;;;;;;;;;4984397;28;20432;-57
2022/03/20 12:20:51;;;;;;;27.05;5.70;;;;;;;;;;4983467;28;20030;-57
2022/03/20 12:23:40;;;;;;;26.15;5.75;;;;;;;;;;4981349;28;20092;-57
2022/03/20 12:26:31;;;;;;;21.10;5.45;;;;;;;;;;4986112;28;20104;-56
2022/03/20 12:29:32;;;;;;;20.23;5.13;;;;;;;;;;4991968;28;20030;-57
2022/03/20 12:31:59;;;;;;;24.80;4.85;;;;;;;;;;4978607;28;20026;-57
2022/03/20 12:34:25;;;;;;;17.42;4.95;;;;;;;;;;4978663;28;20022;-57
2022/03/20 12:36:51;;;;;;;21.90;5.93;;;;;;;;;;4985319;28;20394;-56
2022/03/20 12:39:54;;;;;;;21.92;4.80;;;;;;;;;;4992148;28;20081;-56
2022/03/20 12:42:21;;;;;;;22.20;5.57;;;;;;;;;;4985170;28;20281;-57
2022/03/20 12:44:48;;;;;;;25.75;5.18;;;;;;;;;;4980531;28;20109;-55
2022/03/20 12:47:25;;;;;;;23.80;5.05;;;;;;;;;;4981782;28;20048;-55
2022/03/20 12:49:55;;;;;;;19.38;4.47;;;;;;;;;;4982012;28;20031;-56
2022/03/20 12:52:23;;;;;;;17.00;4.93;;;;;;;;;;4981080;28;20062;-57
2022/03/20 12:54:58;;;;;;;22.52;5.00;;;;;;;;;;4991757;28;20050;-57
2022/03/20 12:57:37;;;;;;;21.27;5.15;;;;;;;;;;4990277;28;20483;-56
2022/03/20 13:00:14;;;;;;;29.30;6.90;;;;;;;;;;4986091;28;20115;-57
2022/03/20 13:03:03;;;;;;;22.25;5.07;;;;;;;;;;4985054;28;20034;-57
2022/03/20 13:05:30;;;;;;;20.73;5.30;;;;;;;;;;4983919;28;20114;-57
2022/03/20 13:07:56;;;;;;;23.85;5.28;;;;;;;;;;4983935;28;20033;-56
2022/03/20 13:10:24;;;;;;;20.30;5.35;;;;;;;;;;4984687;28;20030;-57
2022/03/20 13:13:02;;;;;;;17.27;4.85;;;;;;;;;;4981734;28;20033;-57
2022/03/20 13:15:32;;;;;;;22.58;5.82;;;;;;;;;;4985138;28;20037;-56
2022/03/20 13:17:59;;;;;;;21.05;5.47;;;;;;;;;;4980727;28;20023;-55
2022/03/20 13:20:34;;;;;;;22.40;5.25;;;;;;;;;;4988564;28;20177;-56
2022/03/20 13:23:06;;;;;;;23.83;5.00;;;;;;;;;;4978517;28;20114;-57
2022/03/20 13:25:37;;;;;;;21.10;4.90;;;;;;;;;;4990871;28;20113;-57
2022/03/20 13:28:03;;;;;;;25.45;6.80;;;;;;;;;;4978417;28;20026;-56
2022/03/20 13:30:42;;;;;;;23.20;5.40;;;;;;;;;;4983511;28;20030;-57
2022/03/20 13:33:08;;;;;;;23.35;5.45;;;;;;;;;;4989250;28;20030;-57
2022/03/20 13:35:34;;;;;;;24.60;5.32;;;;;;;;;;4978671;28;20054;-57
2022/03/20 13:38:01;;;;;;;21.92;5.80;;;;;;;;;;4985842;28;20521;-56
2022/03/20 13:40:30;;;;;;;20.85;5.53;;;;;;;;;;4980354;28;20108;-56
2022/03/20 13:42:55;;;;;;;22.13;6.07;;;;;;;;;;4981019;28;20073;-56
2022/03/20 13:45:22;;;;;;;15.98;5.13;;;;;;;;;;4981609;28;20529;-56
2022/03/20 13:47:51;;;;;;;20.10;4.57;;;;;;;;;;4981512;28;20107;-56
2022/03/20 13:50:17;;;;;;;21.67;5.55;;;;;;;;;;4986214;28;20097;-56
2022/03/20 13:52:43;;;;;;;28.52;5.82;;;;;;;;;;4985461;28;20023;-56
2022/03/20 13:55:18;;;;;;;24.48;5.32;;;;;;;;;;4980373;28;20101;-56
2022/03/20 13:57:54;;;;;;;26.65;5.28;;;;;;;;;;4987427;28;20076;-56
2022/03/20 14:00:21;;;;;;;22.20;5.25;;;;;;;;;;4977640;28;20054;-57
2022/03/20 14:02:51;;;;;;;28.10;5.00;;;;;;;;;;4984044;28;20034;-56
2022/03/20 14:05:25;;;;;;;20.08;5.63;;;;;;;;;;4986537;28;20031;-56
2022/03/20 14:08:15;;;;;;;20.98;5.63;;;;;;;;;;4978898;28;20539;-57
2022/03/20 14:11:07;;;;;;;22.55;5.47;;;;;;;;;;4982156;28;20112;-56
2022/03/20 14:13:41;;;;;;;22.90;6.28;;;;;;;;;;4975668;28;20050;-56
2022/03/20 14:16:06;;;;;;;19.75;5.13;;;;;;;;;;4985969;28;20568;-56
2022/03/20 14:18:34;;;;;;;21.20;4.70;;;;;;;;;;5006946;28;20044;-56
2022/03/20 14:21:16;;;;;;;21.25;5.72;;;;;;;;;;4988042;28;20539;-56
2022/03/20 14:24:07;;;;;;;15.27;5.53;;;;;;;;;;4985519;28;20041;-56
2022/03/20 14:26:37;;;;;;;23.48;5.15;;;;;;;;;;4983236;28;20441;-56
2022/03/20 14:29:09;;;;;;;20.77;5.72;;;;;;;;;;4981923;28;20033;-56
2022/03/20 14:40:15;;;;;;;22.05;6.10;;;;;;;;;;4986495;28;20053;-56
2022/03/20 14:42:42;;;;;;;20.67;5.57;;;;;;;;;;4987118;28;20026;-56
2022/03/20 14:45:09;;;;;;;26.10;5.15;;;;;;;;;;4986999;28;20049;-56
2022/03/20 14:47:36;;;;;;;22.42;5.63;;;;;;;;;;4986983;28;20096;-56
2022/03/20 14:50:05;;;;;;;27.67;5.80;;;;;;;;;;4981281;28;20026;-56
2022/03/20 14:52:32;;;;;;;26.30;5.53;;;;;;;;;;4987038;28;20244;-56
2022/03/20 14:55:01;;;;;;;23.83;5.60;;;;;;;;;;4997215;28;20022;-56
2022/03/20 14:57:27;;;;;;;24.88;5.55;;;;;;;;;;4991255;28;20030;-56
2022/03/20 14:59:53;;;;;;;19.50;4.88;;;;;;;;;;4989307;28;20084;-57
2022/03/20 15:02:19;;;;;;;21.85;5.40;;;;;;;;;;4987764;28;20026;-56
2022/03/20 15:04:49;;;;;;;16.60;5.13;;;;;;;;;;4997463;28;20058;-56
2022/03/20 15:07:16;;;;;;;20.15;4.65;;;;;;;;;;4984344;28;20039;-56
2022/03/20 15:12:26;;;;;;;16.80;4.35;;;;;;;;;;4993783;28;20384;-56
2022/03/20 15:14:53;;;;;;;18.38;5.05;;;;;;;;;;4984684;28;20212;-57
2022/03/20 15:17:20;;;;;;;20.58;5.63;;;;;;;;;;4998081;28;20038;-57
2022/03/20 15:19:46;;;;;;;24.27;5.72;;;;;;;;;;4992942;28;20476;-56
2022/03/20 15:22:11;;;;;;;23.00;5.38;;;;;;;;;;4992471;28;20038;-56
2022/03/20 15:24:38;;;;;;;20.20;5.78;;;;;;;;;;4990122;28;20053;-57
2022/03/20 15:27:04;;;;;;;24.10;5.47;;;;;;;;;;4991509;28;20085;-56
2022/03/20 15:29:31;;;;;;;21.17;6.05;;;;;;;;;;4987873;28;20026;-57
2022/03/20 15:31:57;;;;;;;24.17;5.65;;;;;;;;;;4989551;28;20041;-56
2022/03/20 15:34:23;;;;;;;30.90;5.40;;;;;;;;;;5005760;28;20018;-56